createdAt,value
2022-12-01T00:02:12.618Z,101324.72
2022-12-01T00:04:40.004Z,101321.25
2022-12-01T00:07:08.408Z,101325.69
2022-12-01T00:09:54.396Z,101335.94
2022-12-01T00:12:21.661Z,101340.19
2022-12-01T00:14:54.849Z,101341.16
2022-12-01T00:17:22.149Z,101338.59
2022-12-01T00:19:49.924Z,101345.13
2022-12-01T00:22:18.500Z,101341.94
2022-12-01T00:24:46.837Z,101331.03
2022-12-01T00:27:13.921Z,101338.28
2022-12-01T00:29:41.209Z,101338.97
2022-12-01T00:32:08.283Z,101330.66
2022-12-01T00:34:35.565Z,101338.38
2022-12-01T00:37:02.551Z,101334.59
2022-12-01T00:39:31.538Z,101333.44
2022-12-01T00:41:58.567Z,101337.69
2022-12-01T00:44:25.895Z,101337.69
2022-12-01T00:46:52.913Z,101331.03
2022-12-01T00:49:20.286Z,101337.41
2022-12-01T00:51:47.330Z,101335.66
2022-12-01T00:54:14.838Z,101339.25
2022-12-01T00:56:43.288Z,101342.03
2022-12-01T00:59:10.938Z,101342.34
2022-12-01T01:01:38.176Z,101342.81
2022-12-01T01:04:07.117Z,101340.75
2022-12-01T01:06:34.291Z,101344.56
2022-12-01T01:09:01.709Z,101338.84
2022-12-01T01:11:28.730Z,101339.97
2022-12-01T01:13:59.351Z,101341.25
2022-12-01T01:16:27.013Z,101339.25
2022-12-01T01:18:54.427Z,101349.06
2022-12-01T01:21:22.606Z,101340.75
2022-12-01T01:23:50.951Z,101346.13
2022-12-01T01:26:20.220Z,101330.56
2022-12-01T01:28:48.852Z,101340.16
2022-12-01T01:31:20.554Z,101343.25
2022-12-01T01:33:48.704Z,101327.78
2022-12-01T01:36:17.085Z,101334.75
2022-12-01T01:38:44.853Z,101332.22
2022-12-01T01:41:12.925Z,101324.22
2022-12-01T01:43:43.792Z,101330.34
2022-12-01T01:46:12.985Z,101334.94
2022-12-01T01:48:44.232Z,101319.50
2022-12-01T01:51:14.495Z,101326.97
2022-12-01T01:53:43.362Z,101324.78
2022-12-01T01:56:10.577Z,101321.63
2022-12-01T01:58:39.789Z,101316.81
2022-12-01T02:01:07.303Z,101322.09
2022-12-01T02:03:37.253Z,101322.09
2022-12-01T02:06:07.864Z,101320.88
2022-12-01T02:08:38.141Z,101310.91
2022-12-01T02:11:20.175Z,101319.75
2022-12-01T02:13:54.096Z,101327.66
2022-12-01T02:16:33.842Z,101326.63
2022-12-01T02:19:22.175Z,101326.63
2022-12-01T02:22:03.577Z,101324.94
2022-12-01T02:25:03.625Z,101328.63
2022-12-01T02:27:46.858Z,101324.72
2022-12-01T02:30:17.027Z,101320.03
2022-12-01T02:32:53.429Z,101323.84
2022-12-01T02:35:28.620Z,101322.34
2022-12-01T02:38:09.778Z,101328.94
2022-12-01T02:40:42.490Z,101328.41
2022-12-01T02:43:17.361Z,101320.50
2022-12-01T02:45:50.408Z,101322.78
2022-12-01T02:48:25.938Z,101318.53
2022-12-01T02:50:55.539Z,101323.22
2022-12-01T02:53:22.313Z,101319.69
2022-12-01T02:55:52.510Z,101314.56
2022-12-01T02:58:20.586Z,101314.09
2022-12-01T03:01:11.336Z,101314.50
2022-12-01T03:03:53.555Z,101313.63
2022-12-01T03:06:29.940Z,101308.81
2022-12-01T03:09:09.315Z,101315.78
2022-12-01T03:11:46.320Z,101318.91
2022-12-01T03:14:22.854Z,101322.88
2022-12-01T03:16:51.966Z,101322.03
2022-12-01T03:19:29.440Z,101304.53
2022-12-01T03:22:01.636Z,101316.31
2022-12-01T03:24:32.943Z,101316.22
2022-12-01T03:27:03.081Z,101312.16
2022-12-01T03:29:33.731Z,101306.16
2022-12-01T03:32:04.393Z,101309.81
2022-12-01T03:34:38.175Z,101308.56
2022-12-01T03:37:09.917Z,101306.66
2022-12-01T03:39:39.809Z,101307.16
2022-12-01T03:42:13.558Z,101304.16
2022-12-01T03:44:45.436Z,101312.25
2022-12-01T03:47:16.404Z,101308.63
2022-12-01T03:49:46.607Z,101312.03
2022-12-01T03:52:26.449Z,101303.09
2022-12-01T03:55:04.910Z,101309.88
2022-12-01T03:57:37.034Z,101296.97
2022-12-01T04:00:06.814Z,101300.44
2022-12-01T04:02:34.043Z,101297.34
2022-12-01T04:05:02.449Z,101299.38
2022-12-01T04:07:29.736Z,101295.53
2022-12-01T04:09:57.412Z,101292.66
2022-12-01T04:12:30.379Z,101289.91
2022-12-01T04:14:58.396Z,101288.66
2022-12-01T04:17:26.367Z,101274.13
2022-12-01T04:19:53.707Z,101296.00
2022-12-01T04:22:23.070Z,101287.78
2022-12-01T04:24:49.909Z,101293.06
2022-12-01T04:27:17.293Z,101289.06
2022-12-01T04:29:44.345Z,101292.22
2022-12-01T04:32:11.751Z,101293.91
2022-12-01T04:34:38.714Z,101297.59
2022-12-01T04:37:07.305Z,101300.91
2022-12-01T04:39:36.462Z,101286.00
2022-12-01T04:42:03.722Z,101307.16
2022-12-01T04:44:34.828Z,101301.50
2022-12-01T04:47:03.293Z,101296.25
2022-12-01T04:49:30.822Z,101297.84
2022-12-01T04:51:58.284Z,101300.25
2022-12-01T04:54:25.356Z,101292.91
2022-12-01T04:56:54.010Z,101292.06
2022-12-01T04:59:21.385Z,101290.38
2022-12-01T05:01:48.810Z,101299.13
2022-12-01T05:04:15.937Z,101285.69
2022-12-01T05:06:43.706Z,101301.16
2022-12-01T05:09:17.479Z,101307.09
2022-12-01T05:11:45.268Z,101310.59
2022-12-01T05:14:13.893Z,101312.22
2022-12-01T05:16:41.291Z,101315.28
2022-12-01T05:19:27.371Z,101312.84
2022-12-01T05:21:54.621Z,101309.19
2022-12-01T05:24:21.589Z,101304.84
2022-12-01T05:26:48.815Z,101307.56
2022-12-01T05:29:17.360Z,101297.03
2022-12-01T05:31:45.721Z,101276.06
2022-12-01T05:34:12.768Z,101299.94
2022-12-01T05:36:39.899Z,101307.91
2022-12-01T05:39:06.983Z,101302.56
2022-12-01T05:41:34.233Z,101300.09
2022-12-01T05:44:01.105Z,101300.16
2022-12-01T05:46:29.689Z,101297.66
2022-12-01T05:48:56.751Z,101300.53
2022-12-01T05:51:24.005Z,101301.00
2022-12-01T05:53:50.958Z,101303.56
2022-12-01T05:56:18.149Z,101302.22
2022-12-01T05:58:45.055Z,101309.44
2022-12-01T06:01:12.185Z,101307.97
2022-12-01T06:03:40.477Z,101307.03
2022-12-01T06:06:07.829Z,101307.91
2022-12-01T06:08:34.914Z,101302.97
2022-12-01T06:11:02.828Z,101309.59
2022-12-01T06:13:29.792Z,101307.16
2022-12-01T06:15:58.953Z,101306.28
2022-12-01T06:18:28.768Z,101316.66
2022-12-01T06:20:57.614Z,101318.50
2022-12-01T06:23:30.042Z,101314.19
2022-12-01T06:25:58.128Z,101311.03
2022-12-01T06:28:25.376Z,101314.59
2022-12-01T06:30:56.521Z,101317.63
2022-12-01T06:33:26.388Z,101294.09
2022-12-01T06:35:59.223Z,101305.03
2022-12-01T06:38:26.264Z,101309.28
2022-12-01T06:40:53.561Z,101315.31
2022-12-01T06:43:20.484Z,101313.34
2022-12-01T06:45:47.661Z,101322.03
2022-12-01T06:48:14.628Z,101322.97
2022-12-01T06:50:41.689Z,101328.16
2022-12-01T06:53:10.770Z,101330.63
2022-12-01T06:55:38.880Z,101332.13
2022-12-01T06:58:06.319Z,101334.31
2022-12-01T07:00:34.092Z,101338.97
2022-12-01T07:03:01.018Z,101334.38
2022-12-01T07:05:28.324Z,101337.88
2022-12-01T07:07:59.436Z,101340.41
2022-12-01T07:10:28.552Z,101335.38
2022-12-01T07:12:56.165Z,101333.34
2022-12-01T07:15:24.366Z,101327.78
2022-12-01T07:17:51.260Z,101333.94
2022-12-01T07:20:18.682Z,101328.25
2022-12-01T07:22:45.532Z,101335.91
2022-12-01T07:25:12.726Z,101332.53
2022-12-01T07:27:40.966Z,101341.41
2022-12-01T07:30:09.142Z,101334.47
2022-12-01T07:32:36.002Z,101339.47
2022-12-01T07:35:03.357Z,101342.88
2022-12-01T07:37:30.173Z,101333.84
2022-12-01T07:39:57.483Z,101339.59
2022-12-01T07:42:24.365Z,101339.84
2022-12-01T07:44:52.888Z,101343.31
2022-12-01T07:47:19.873Z,101338.03
2022-12-01T07:49:47.213Z,101327.06
2022-12-01T07:52:14.244Z,101316.31
2022-12-01T07:54:41.428Z,101315.72
2022-12-01T07:57:08.427Z,101316.50
2022-12-01T07:59:35.868Z,101319.78
2022-12-01T08:02:04.266Z,101321.59
2022-12-01T08:04:31.595Z,101319.22
2022-12-01T08:06:58.482Z,101325.25
2022-12-01T08:09:25.772Z,101327.69
2022-12-01T08:11:52.679Z,101319.38
2022-12-01T08:14:20.360Z,101319.78
2022-12-01T08:16:48.434Z,101317.66
2022-12-01T08:19:17.275Z,101322.78
2022-12-01T08:21:44.258Z,101327.22
2022-12-01T08:24:11.637Z,101318.69
2022-12-01T08:26:38.530Z,101319.50
2022-12-01T08:29:06.471Z,101327.19
2022-12-01T08:31:38.190Z,101320.16
2022-12-01T08:34:06.345Z,101315.47
2022-12-01T08:36:35.155Z,101323.34
2022-12-01T08:39:02.403Z,101325.25
2022-12-01T08:41:29.514Z,101327.50
2022-12-01T08:43:59.619Z,101332.25
2022-12-01T08:46:28.422Z,101331.84
2022-12-01T08:48:57.357Z,101327.97
2022-12-01T08:51:24.586Z,101322.56
2022-12-01T08:53:53.203Z,101301.53
2022-12-01T08:56:22.378Z,101320.06
2022-12-01T08:58:51.145Z,101326.44
2022-12-01T09:01:18.969Z,101325.19
2022-12-01T09:03:46.267Z,101320.34
2022-12-01T09:06:17.279Z,101308.97
2022-12-01T09:08:44.630Z,101309.94
2022-12-01T09:11:15.714Z,101312.28
2022-12-01T09:13:44.023Z,101317.88
2022-12-01T09:16:12.965Z,101315.47
2022-12-01T09:18:40.713Z,101307.19
2022-12-01T09:21:12.525Z,101314.09
2022-12-01T09:23:40.264Z,101290.84
2022-12-01T09:26:13.197Z,101306.03
2022-12-01T09:28:42.632Z,101309.31
2022-12-01T09:31:11.558Z,101302.63
2022-12-01T09:33:39.470Z,101300.97
2022-12-01T09:36:08.381Z,101300.31
2022-12-01T09:38:36.634Z,101295.31
2022-12-01T09:41:06.313Z,101295.44
2022-12-01T09:43:41.657Z,101284.22
2022-12-01T09:46:16.954Z,101294.28
2022-12-01T09:48:46.535Z,101297.00
2022-12-01T09:51:15.004Z,101300.13
2022-12-01T09:53:43.067Z,101301.31
2022-12-01T09:56:19.903Z,101295.31
2022-12-01T09:58:50.762Z,101289.81
2022-12-01T10:01:27.390Z,101288.16
2022-12-01T10:03:57.764Z,101292.47
2022-12-01T10:06:29.769Z,101287.25
2022-12-01T10:09:03.802Z,101280.53
2022-12-01T10:11:35.512Z,101283.75
2022-12-01T10:14:04.442Z,101288.59
2022-12-01T10:16:38.387Z,101290.13
2022-12-01T10:19:13.404Z,101284.91
2022-12-01T10:22:01.306Z,101284.66
2022-12-01T10:24:42.966Z,101284.97
2022-12-01T10:27:21.750Z,101287.97
2022-12-01T10:29:50.343Z,101289.03
2022-12-01T10:32:20.651Z,101284.44
2022-12-01T10:34:48.535Z,101280.66
2022-12-01T10:37:18.901Z,101279.41
2022-12-01T10:39:49.678Z,101272.78
2022-12-01T10:42:22.135Z,101274.47
2022-12-01T10:44:50.362Z,101268.22
2022-12-01T10:47:21.917Z,101268.78
2022-12-01T10:49:50.411Z,101260.72
2022-12-01T10:52:36.844Z,101262.34
2022-12-01T10:55:23.299Z,101263.34
2022-12-01T10:57:51.884Z,101265.16
2022-12-01T11:00:57.516Z,101264.69
2022-12-01T11:03:21.841Z,101259.72
2022-12-01T11:05:53.216Z,101259.13
2022-12-01T11:08:25.491Z,101259.38
2022-12-01T11:10:52.891Z,101253.81
2022-12-01T11:13:23.790Z,101257.69
2022-12-01T11:15:53.607Z,101244.53
2022-12-01T11:18:24.613Z,101259.84
2022-12-01T11:21:07.415Z,101255.84
2022-12-01T11:23:36.699Z,101251.88
2022-12-01T11:26:10.742Z,101255.13
2022-12-01T11:28:43.112Z,101247.66
2022-12-01T11:31:12.084Z,101256.81
2022-12-01T11:33:46.901Z,101237.50
2022-12-01T11:36:27.633Z,101261.81
2022-12-01T11:39:00.368Z,101265.41
2022-12-01T11:41:32.053Z,101259.38
2022-12-01T11:44:06.279Z,101264.34
2022-12-01T11:46:50.064Z,101267.72
2022-12-01T11:49:22.094Z,101263.75
2022-12-01T11:51:50.014Z,101268.81
2022-12-01T11:54:19.542Z,101269.16
2022-12-01T11:56:56.188Z,101270.38
2022-12-01T11:59:35.467Z,101267.34
2022-12-01T12:02:22.373Z,101263.38
2022-12-01T12:05:18.346Z,101270.13
2022-12-01T12:07:54.518Z,101263.97
2022-12-01T12:10:32.744Z,101269.75
2022-12-01T12:13:12.209Z,101277.00
2022-12-01T12:15:53.064Z,101280.59
2022-12-01T12:18:36.706Z,101281.66
2022-12-01T12:21:14.787Z,101279.38
2022-12-01T12:24:14.733Z,101280.44
2022-12-01T12:26:49.080Z,101278.91
2022-12-01T12:29:34.985Z,101280.75
2022-12-01T12:32:16.981Z,101280.88
2022-12-01T12:34:53.954Z,101278.97
2022-12-01T12:37:31.470Z,101279.91
2022-12-01T12:40:19.185Z,101276.38
2022-12-01T12:42:59.145Z,101279.06
2022-12-01T12:45:34.199Z,101273.13
2022-12-01T12:48:14.089Z,101277.47
2022-12-01T12:50:48.084Z,101277.75
2022-12-01T12:53:21.435Z,101271.69
2022-12-01T12:55:51.380Z,101273.81
2022-12-01T12:58:23.477Z,101278.75
2022-12-01T13:00:56.192Z,101280.88
2022-12-01T13:03:34.496Z,101279.75
2022-12-01T13:06:09.336Z,101282.38
2022-12-01T13:08:42.690Z,101286.66
2022-12-01T13:11:14.836Z,101290.53
2022-12-01T13:13:50.352Z,101287.66
2022-12-01T13:16:23.051Z,101292.00
2022-12-01T13:18:54.632Z,101294.88
2022-12-01T13:21:24.034Z,101298.13
2022-12-01T13:23:52.811Z,101291.91
2022-12-01T13:26:22.384Z,101293.59
2022-12-01T13:28:52.092Z,101290.59
2022-12-01T13:31:20.990Z,101289.13
2022-12-01T13:33:56.104Z,101295.50
2022-12-01T13:36:45.738Z,101298.94
2022-12-01T13:39:18.913Z,101292.13
2022-12-01T13:41:55.953Z,101292.34
2022-12-01T13:44:26.140Z,101290.16
2022-12-01T13:46:58.572Z,101289.13
2022-12-01T13:49:36.811Z,101292.69
2022-12-01T13:52:26.668Z,101299.19
2022-12-01T13:55:20.292Z,101295.41
2022-12-01T13:57:49.878Z,101287.06
2022-12-01T14:00:27.275Z,101287.19
2022-12-01T14:03:33.388Z,101286.63
2022-12-01T14:06:08.579Z,101279.13
2022-12-01T14:08:37.911Z,101283.66
2022-12-01T14:11:07.513Z,101284.50
2022-12-01T14:13:45.652Z,101280.91
2022-12-01T14:16:12.730Z,101285.19
2022-12-01T14:18:43.921Z,101283.97
2022-12-01T14:21:12.514Z,101279.94
2022-12-01T14:23:58.379Z,101279.09
2022-12-01T14:26:29.421Z,101278.22
2022-12-01T14:29:24.501Z,101274.00
2022-12-01T14:32:22.572Z,101280.06
2022-12-01T14:34:53.683Z,101287.13
2022-12-01T14:37:25.585Z,101284.59
2022-12-01T14:40:04.377Z,101286.41
2022-12-01T14:42:55.939Z,101281.59
2022-12-01T14:45:27.783Z,101283.03
2022-12-01T14:48:02.519Z,101278.94
2022-12-01T14:50:43.537Z,101286.44
2022-12-01T14:53:21.733Z,101284.94
2022-12-01T14:55:53.660Z,101285.28
2022-12-01T14:58:25.714Z,101288.88
2022-12-01T15:01:04.619Z,101285.50
2022-12-01T15:03:37.035Z,101288.25
2022-12-01T15:06:05.063Z,101292.59
2022-12-01T15:08:41.847Z,101285.94
2022-12-01T15:11:20.798Z,101293.00
2022-12-01T15:13:50.822Z,101293.44
2022-12-01T15:16:19.951Z,101294.28
2022-12-01T15:18:46.945Z,101301.28
2022-12-01T15:21:19.471Z,101297.13
2022-12-01T15:23:58.144Z,101296.28
2022-12-01T15:26:28.696Z,101296.28
2022-12-01T15:29:15.755Z,101291.31
2022-12-01T15:31:44.965Z,101302.22
2022-12-01T15:34:15.774Z,101299.25
2022-12-01T15:36:43.856Z,101296.72
2022-12-01T15:39:15.492Z,101301.59
2022-12-01T15:41:44.765Z,101300.00
2022-12-01T15:44:20.638Z,101299.69
2022-12-01T15:46:47.985Z,101300.53
2022-12-01T15:49:19.429Z,101303.28
2022-12-01T15:51:47.973Z,101302.22
2022-12-01T15:54:20.713Z,101297.56
2022-12-01T15:56:53.229Z,101293.22
2022-12-01T15:59:28.696Z,101292.38
2022-12-01T16:01:56.819Z,101301.50
2022-12-01T16:04:26.836Z,101292.06
2022-12-01T16:06:58.249Z,101293.34
2022-12-01T16:09:31.007Z,101292.59
2022-12-01T16:12:07.375Z,101269.94
2022-12-01T16:14:36.625Z,101290.91
2022-12-01T16:17:04.742Z,101299.16
2022-12-01T16:19:33.706Z,101300.41
2022-12-01T16:22:03.298Z,101298.22
2022-12-01T16:24:37.806Z,101310.53
2022-12-01T16:27:07.305Z,101300.34
2022-12-01T16:29:49.951Z,101309.47
2022-12-01T16:32:21.539Z,101308.56
2022-12-01T16:34:50.653Z,101314.38
2022-12-01T16:37:18.014Z,101306.66
2022-12-01T16:39:45.451Z,101304.94
2022-12-01T16:42:14.261Z,101307.94
2022-12-01T16:44:44.606Z,101306.97
2022-12-01T16:47:18.073Z,101299.34
2022-12-01T16:49:45.065Z,101310.56
2022-12-01T16:54:59.799Z,101302.97
2022-12-01T16:57:26.980Z,101302.88
2022-12-01T16:59:55.362Z,101306.47
2022-12-01T17:02:22.559Z,101307.63
2022-12-01T17:04:49.916Z,101302.66
2022-12-01T17:07:17.381Z,101304.34
2022-12-01T17:09:44.388Z,101307.94
2022-12-01T17:12:11.466Z,101308.59
2022-12-01T17:14:38.369Z,101308.50
2022-12-01T17:17:06.924Z,101315.16
2022-12-01T17:19:34.103Z,101318.72
2022-12-01T17:22:01.280Z,101325.84
2022-12-01T17:24:28.146Z,101316.09
2022-12-01T17:26:55.288Z,101313.66
2022-12-01T17:29:22.253Z,101320.00
2022-12-01T17:31:49.601Z,101323.41
2022-12-01T17:34:18.019Z,101323.53
2022-12-01T17:36:45.297Z,101320.97
2022-12-01T17:39:12.227Z,101322.47
2022-12-01T17:41:41.030Z,101321.03
2022-12-01T17:44:08.050Z,101308.00
2022-12-01T17:46:35.614Z,101312.47
2022-12-01T17:49:08.494Z,101310.78
2022-12-01T17:51:37.597Z,101314.72
2022-12-01T17:54:04.883Z,101316.22
2022-12-01T17:56:39.448Z,101315.97
2022-12-01T17:59:07.048Z,101308.75
2022-12-01T18:01:34.553Z,101322.84
2022-12-01T18:04:01.594Z,101316.84
2022-12-01T18:06:28.867Z,101323.41
2022-12-01T18:08:58.963Z,101318.72
2022-12-01T18:11:26.718Z,101321.19
2022-12-01T18:13:54.002Z,101332.84
2022-12-01T18:16:22.819Z,101330.19
2022-12-01T18:18:50.381Z,101323.59
2022-12-01T18:21:19.579Z,101320.22
2022-12-01T18:23:49.124Z,101327.84
2022-12-01T18:26:20.438Z,101334.72
2022-12-01T18:28:47.470Z,101320.22
2022-12-01T18:31:16.200Z,101309.56
2022-12-01T18:33:44.710Z,101342.31
2022-12-01T18:36:13.698Z,101354.03
2022-12-01T18:38:41.460Z,101352.75
2022-12-01T18:41:08.872Z,101350.13
2022-12-01T18:43:37.511Z,101342.56
2022-12-01T18:46:06.194Z,101332.50
2022-12-01T18:48:34.166Z,101340.00
2022-12-01T18:51:02.904Z,101347.53
2022-12-01T18:53:29.956Z,101337.47
2022-12-01T18:55:57.146Z,101342.66
2022-12-01T18:58:24.080Z,101340.91
2022-12-01T19:00:52.786Z,101342.34
2022-12-01T19:03:19.892Z,101346.47
2022-12-01T19:05:47.173Z,101347.34
2022-12-01T19:08:14.533Z,101347.41
2022-12-01T19:10:42.050Z,101352.34
2022-12-01T19:13:08.993Z,101346.25
2022-12-01T19:15:36.451Z,101346.22
2022-12-01T19:18:04.928Z,101347.00
2022-12-01T19:20:32.195Z,101349.06
2022-12-01T19:22:59.540Z,101349.38
2022-12-01T19:25:26.707Z,101352.31
2022-12-01T19:27:53.647Z,101357.13
2022-12-01T19:30:21.278Z,101368.72
2022-12-01T19:32:48.218Z,101359.19
2022-12-01T19:35:16.825Z,101365.41
2022-12-01T19:37:43.757Z,101360.13
2022-12-01T19:40:12.330Z,101369.00
2022-12-01T19:42:39.330Z,101365.13
2022-12-01T19:45:07.865Z,101370.88
2022-12-01T19:47:35.456Z,101359.59
2022-12-01T19:50:03.067Z,101369.28
2022-12-01T19:52:31.286Z,101364.09
2022-12-01T19:54:59.840Z,101369.59
2022-12-01T19:57:26.858Z,101364.00
2022-12-01T19:59:54.172Z,101372.66
2022-12-01T20:02:27.566Z,101370.97
2022-12-01T20:04:56.683Z,101380.50
2022-12-01T20:07:23.677Z,101384.94
2022-12-01T20:09:52.609Z,101373.81
2022-12-01T20:12:19.586Z,101377.00
2022-12-01T20:14:46.928Z,101379.75
2022-12-01T20:17:16.069Z,101386.75
2022-12-01T20:19:43.516Z,101368.06
2022-12-01T20:22:10.985Z,101381.16
2022-12-01T20:24:41.203Z,101394.66
2022-12-01T20:27:09.795Z,101382.50
2022-12-01T20:29:37.303Z,101387.03
2022-12-01T20:32:04.596Z,101389.38
2022-12-01T20:34:34.637Z,101394.00
2022-12-01T20:37:01.991Z,101388.13
2022-12-01T20:39:32.391Z,101397.50
2022-12-01T20:41:59.465Z,101402.78
2022-12-01T20:44:28.204Z,101398.63
2022-12-01T20:46:55.151Z,101396.16
2022-12-01T20:49:26.704Z,101393.63
2022-12-01T20:51:53.868Z,101401.84
2022-12-01T20:54:30.404Z,101379.28
2022-12-01T20:57:02.519Z,101400.72
2022-12-01T20:59:31.188Z,101398.16
2022-12-01T21:01:58.270Z,101377.03
2022-12-01T21:04:25.662Z,101403.06
2022-12-01T21:06:57.023Z,101404.75
2022-12-01T21:09:24.525Z,101413.06
2022-12-01T21:12:10.304Z,101401.56
2022-12-01T21:14:42.931Z,101407.59
2022-12-01T21:17:21.921Z,101387.78
2022-12-01T21:19:54.540Z,101397.97
2022-12-01T21:22:21.495Z,101399.66
2022-12-01T21:24:51.629Z,101397.88
2022-12-01T21:27:18.910Z,101399.75
2022-12-01T21:29:48.915Z,101399.97
2022-12-01T21:32:17.163Z,101398.28
2022-12-01T21:34:47.005Z,101397.63
2022-12-01T21:37:23.173Z,101398.34
2022-12-01T21:39:52.279Z,101399.97
2022-12-01T21:42:21.494Z,101401.56
2022-12-01T21:44:50.664Z,101403.16
2022-12-01T21:47:21.672Z,101408.84
2022-12-01T21:49:51.981Z,101402.59
2022-12-01T21:52:21.753Z,101411.72
2022-12-01T21:54:49.803Z,101411.28
2022-12-01T21:57:42.761Z,101409.28
2022-12-01T22:00:29.983Z,101420.03
2022-12-01T22:03:21.317Z,101407.91
2022-12-01T22:06:07.448Z,101404.59
2022-12-01T22:08:40.078Z,101414.75
2022-12-01T22:11:12.975Z,101396.91
2022-12-01T22:13:43.235Z,101401.84
2022-12-01T22:16:18.785Z,101407.03
2022-12-01T22:18:49.899Z,101407.78
2022-12-01T22:21:35.528Z,101410.34
2022-12-01T22:24:21.484Z,101412.69
2022-12-01T22:26:51.833Z,101400.81
2022-12-01T22:29:27.989Z,101402.31
2022-12-01T22:32:25.836Z,101406.38
2022-12-01T22:34:55.104Z,101413.91
2022-12-01T22:37:23.897Z,101405.50
2022-12-01T22:39:54.473Z,101405.41
2022-12-01T22:42:30.075Z,101405.63
2022-12-01T22:44:57.912Z,101407.13
2022-12-01T22:47:31.504Z,101408.16
2022-12-01T22:49:59.142Z,101403.06
2022-12-01T22:52:29.775Z,101402.03
2022-12-01T22:54:56.632Z,101397.34
2022-12-01T22:57:36.644Z,101399.69
2022-12-01T23:00:15.355Z,101390.97
2022-12-01T23:02:43.987Z,101388.47
2022-12-01T23:05:21.816Z,101392.78
2022-12-01T23:07:50.146Z,101397.03
2022-12-01T23:10:19.344Z,101393.75
2022-12-01T23:12:48.402Z,101387.69
2022-12-01T23:15:21.781Z,101391.38
2022-12-01T23:17:51.100Z,101382.59
2022-12-01T23:20:30.721Z,101386.00
2022-12-01T23:23:00.581Z,101385.31
2022-12-01T23:25:28.095Z,101376.75
2022-12-01T23:27:59.288Z,101389.50
2022-12-01T23:30:26.709Z,101363.84
2022-12-01T23:33:05.915Z,101383.91
2022-12-01T23:35:39.460Z,101389.94
2022-12-01T23:38:14.440Z,101381.06
2022-12-01T23:40:41.461Z,101381.94
2022-12-01T23:43:16.944Z,101379.22
2022-12-01T23:45:45.281Z,101375.72
2022-12-01T23:48:19.383Z,101387.88
2022-12-01T23:50:47.486Z,101387.78
2022-12-01T23:53:28.847Z,101385.06
2022-12-01T23:55:57.748Z,101391.19
2022-12-01T23:58:24.791Z,101387.72
